Time;durP1;ratioP1;P1;durP2;ratioP2;P2;SDS_P1;SDS_P2;PMS_P1;PMS_P2;Temp;Humidity;BMP_temperature;BMP_pressure;BME280_temperature;BME280_humidity;BME280_pressure;Samples;Min_cycle;Max_cycle;Signal;HPM_P1;HPM_P2
2022/01/29 00:00:24;;;;;;;;;;;20.10;26.60;;;;;;5049124;28;20011;-62
2022/01/29 00:02:51;;;;;;;;;;;20.40;26.70;;;;;;5048161;28;19988;-63
2022/01/29 00:05:17;;;;;;;;;;;20.10;28.10;;;;;;5066382;28;19912;-65
2022/01/29 00:07:43;;;;;;;;;;;20.70;28.60;;;;;;5049511;28;19916;-66
2022/01/29 00:10:10;;;;;;;;;;;20.00;32.20;;;;;;5041427;28;19916;-64
2022/01/29 00:12:36;;;;;;;;;;;19.80;45.00;;;;;;5044167;28;19928;-64
2022/01/29 00:15:02;;;;;;;;;;;19.90;33.30;;;;;;5042493;28;19913;-64
2022/01/29 00:17:28;;;;;;;;;;;19.90;37.80;;;;;;5046332;28;19987;-63
2022/01/29 00:19:54;;;;;;;;;;;19.80;17.70;;;;;;5044803;28;20023;-64
2022/01/29 00:22:20;;;;;;;;;;;19.80;20.80;;;;;;5051307;28;20002;-64
2022/01/29 00:24:46;;;;;;;;;;;19.60;27.50;;;;;;5048682;28;19959;-65
2022/01/29 00:27:12;;;;;;;;;;;19.60;23.80;;;;;;5048806;28;19954;-63
2022/01/29 00:29:40;;;;;;;;;;;19.40;27.10;;;;;;5046745;28;21314;-64
2022/01/29 00:32:08;;;;;;;;;;;19.40;31.40;;;;;;5066202;28;19966;-63
2022/01/29 00:34:34;;;;;;;;;;;;;;;;;;5046082;28;19933;-65
2022/01/29 00:37:00;;;;;;;;;;;19.30;27.30;;;;;;5049362;28;19954;-65
2022/01/29 00:39:26;;;;;;;;;;;;;;;;;;5064114;28;20024;-65
2022/01/29 00:41:52;;;;;;;;;;;18.90;24.50;;;;;;5066866;28;19912;-64
2022/01/29 00:44:18;;;;;;;;;;;19.00;26.80;;;;;;5049139;28;19948;-66
2022/01/29 00:46:44;;;;;;;;;;;17.90;30.20;;;;;;5046236;28;19955;-66
2022/01/29 00:49:11;;;;;;;;;;;18.90;29.60;;;;;;5065742;28;20036;-65
2022/01/29 00:51:37;;;;;;;;;;;18.80;20.30;;;;;;5048712;28;19959;-64
2022/01/29 00:54:03;;;;;;;;;;;18.80;20.40;;;;;;5063535;28;20003;-64
2022/01/29 00:56:30;;;;;;;;;;;18.70;20.50;;;;;;5048261;28;20032;-65
2022/01/29 00:58:56;;;;;;;;;;;18.60;20.30;;;;;;5081628;28;19988;-64
2022/01/29 01:01:22;;;;;;;;;;;18.50;20.30;;;;;;5066470;28;19960;-65
2022/01/29 01:03:48;;;;;;;;;;;18.50;20.80;;;;;;5086219;28;19960;-63
2022/01/29 01:06:14;;;;;;;;;;;18.50;21.00;;;;;;5050585;28;20050;-65
2022/01/29 01:08:40;;;;;;;;;;;18.40;21.20;;;;;;5063875;28;20127;-64
2022/01/29 01:11:06;;;;;;;;;;;18.30;22.50;;;;;;5081607;28;19980;-65
2022/01/29 01:13:32;;;;;;;;;;;18.30;21.50;;;;;;5081095;28;19964;-65
2022/01/29 01:15:59;;;;;;;;;;;18.30;21.80;;;;;;5062853;28;19987;-65
2022/01/29 01:18:25;;;;;;;;;;;18.20;21.70;;;;;;5061681;28;19959;-63
2022/01/29 01:20:51;;;;;;;;;;;18.20;21.90;;;;;;5064426;28;20013;-64
2022/01/29 01:23:17;;;;;;;;;;;18.00;21.60;;;;;;5054852;28;19978;-65
2022/01/29 01:25:46;;;;;;;;;;;18.00;22.10;;;;;;5084796;28;19963;-67
2022/01/29 01:28:12;;;;;;;;;;;18.00;22.10;;;;;;5086085;28;20238;-65
2022/01/29 01:30:39;;;;;;;;;;;18.00;22.10;;;;;;5084196;28;20440;-64
2022/01/29 01:33:05;;;;;;;;;;;17.80;22.70;;;;;;5067754;28;19960;-64
2022/01/29 01:35:37;;;;;;;;;;;17.90;22.00;;;;;;5068254;28;20002;-63
2022/01/29 01:40:53;;;;;;;;;;;17.80;22.00;;;;;;5084209;28;19963;-64
2022/01/29 01:43:19;;;;;;;;;;;17.80;22.10;;;;;;5086655;28;20043;-64
2022/01/29 01:45:45;;;;;;;;;;;17.70;22.10;;;;;;5065585;28;20434;-63
2022/01/29 01:48:11;;;;;;;;;;;17.70;22.00;;;;;;5066247;28;20052;-63
2022/01/29 01:50:37;;;;;;;;;;;17.70;22.50;;;;;;5065522;28;19960;-63
2022/01/29 01:53:04;;;;;;;;;;;17.30;22.70;;;;;;5069252;28;19936;-63
2022/01/29 01:55:30;;;;;;;;;;;17.50;31.10;;;;;;5066767;28;19987;-63
2022/01/29 01:57:57;;;;;;;;;;;17.70;26.60;;;;;;5065663;28;19994;-65
2022/01/29 02:00:24;;;;;;;;;;;17.50;25.20;;;;;;5068764;28;19991;-64
2022/01/29 02:02:50;;;;;;;;;;;17.60;39.00;;;;;;5082898;28;19928;-64
2022/01/29 02:05:17;;;;;;;;;;;17.40;31.00;;;;;;5063995;28;19930;-64
2022/01/29 02:07:43;;;;;;;;;;;17.50;28.70;;;;;;5061294;28;20014;-63
2022/01/29 02:10:11;;;;;;;;;;;17.40;44.70;;;;;;5078367;28;19916;-65
2022/01/29 02:12:59;;;;;;;;;;;17.00;29.80;;;;;;5061656;28;19989;-64
2022/01/29 02:15:26;;;;;;;;;;;17.30;30.20;;;;;;5073884;28;19937;-63
2022/01/29 02:17:52;;;;;;;;;;;17.50;38.50;;;;;;5082373;28;19940;-65
2022/01/29 02:20:18;;;;;;;;;;;;;;;;;;5066960;28;19912;-64
2022/01/29 02:25:05;;;;;;;24.80;4.22;;;17.30;24.60;;;;;;5106514;27;20477;-65
2022/01/29 02:27:31;;;;;;;17.33;3.47;;;17.30;24.70;;;;;;5107106;28;20103;-64
2022/01/29 02:29:59;;;;;;;;;;;17.30;24.00;;;;;;5106159;28;20083;-65
2022/01/29 02:32:25;;;;;;;17.52;3.08;;;17.30;23.90;;;;;;5106988;28;19956;-65
2022/01/29 02:34:51;;;;;;;;;;;17.20;23.50;;;;;;5119296;27;20080;-64
2022/01/29 02:37:18;;;;;;;28.13;2.85;;;17.20;23.50;;;;;;5102862;28;20314;-62
2022/01/29 02:39:44;;;;;;;26.88;2.40;;;17.20;23.60;;;;;;5104999;28;20098;-65
2022/01/29 02:42:11;;;;;;;10.07;3.05;;;17.20;23.70;;;;;;5102674;28;20080;-65
2022/01/29 02:44:37;;;;;;;;;;;17.20;23.90;;;;;;5103465;28;20093;-67
2022/01/29 02:47:25;;;;;;;20.65;3.80;;;17.20;24.30;;;;;;5104475;28;19963;-64
2022/01/29 02:49:49;;;;;;;16.63;4.60;;;17.10;24.20;;;;;;5104676;28;20635;-63
2022/01/29 02:52:16;;;;;;;39.60;6.68;;;17.10;24.50;;;;;;5103597;28;20522;-65
2022/01/29 02:54:43;;;;;;;30.35;7.20;;;17.10;24.80;;;;;;5106640;28;20165;-64
2022/01/29 02:57:09;;;;;;;43.53;14.82;;;17.00;24.80;;;;;;5110594;28;20084;-65
2022/01/29 02:59:36;;;;;;;35.55;9.57;;;16.90;24.50;;;;;;5102385;28;20076;-65
2022/01/29 03:02:03;;;;;;;32.60;9.32;;;16.90;24.40;;;;;;5103796;28;20075;-64
2022/01/29 03:04:30;;;;;;;35.70;8.38;;;16.80;24.50;;;;;;5105650;28;20525;-66
2022/01/29 03:06:56;;;;;;;26.48;7.72;;;16.70;24.50;;;;;;5104826;28;20147;-66
2022/01/29 03:09:22;;;;;;;;;;;16.70;24.50;;;;;;5103590;28;20075;-63
2022/01/29 03:11:49;;;;;;;32.92;7.45;;;16.60;25.00;;;;;;5103080;28;19981;-63
2022/01/29 03:14:15;;;;;;;26.00;7.00;;;16.60;24.80;;;;;;5102289;28;20686;-63
2022/01/29 03:16:41;;;;;;;;;;;16.50;25.20;;;;;;5103129;28;20072;-66
2022/01/29 03:19:08;;;;;;;22.38;6.97;;;16.40;25.20;;;;;;5102681;28;20418;-64
2022/01/29 03:21:34;;;;;;;;;;;16.20;24.80;;;;;;5102689;28;20104;-62
2022/01/29 03:24:00;;;;;;;37.60;10.70;;;16.20;24.90;;;;;;5103738;28;20029;-64
2022/01/29 03:26:27;;;;;;;34.65;11.57;;;16.20;25.20;;;;;;5102876;28;20115;-63
2022/01/29 03:29:00;;;;;;;39.00;11.98;;;16.20;25.20;;;;;;5103925;28;20089;-65
2022/01/29 03:31:26;;;;;;;51.25;11.82;;;16.10;25.00;;;;;;5104454;28;20069;-63
2022/01/29 03:33:53;;;;;;;;;;;16.00;24.90;;;;;;5103348;28;20529;-64
2022/01/29 03:36:19;;;;;;;38.67;10.57;;;16.00;24.90;;;;;;5087755;28;20418;-64
2022/01/29 03:38:45;;;;;;;;;;;16.00;24.90;;;;;;5090760;28;20079;-68
2022/01/29 03:41:13;;;;;;;26.20;8.48;;;16.10;24.80;;;;;;5088274;28;20063;-68
2022/01/29 03:43:47;;;;;;;47.42;8.27;;;16.10;24.60;;;;;;5091404;28;20138;-68
2022/01/29 03:46:14;;;;;;;24.05;8.13;;;16.10;24.40;;;;;;5093034;28;20080;-68
2022/01/29 03:48:41;;;;;;;33.80;8.30;;;16.20;24.20;;;;;;5090029;28;20150;-65
2022/01/29 03:51:07;;;;;;;38.30;9.10;;;16.20;24.10;;;;;;5090958;28;20069;-65
2022/01/29 03:53:34;;;;;;;32.20;8.77;;;16.00;24.00;;;;;;5091305;28;20108;-66
2022/01/29 03:56:00;;;;;;;;;;;16.00;24.00;;;;;;5092493;28;20076;-68
2022/01/29 03:58:26;;;;;;;49.15;9.57;;;16.10;24.60;;;;;;5089322;28;19972;-66
2022/01/29 04:00:52;;;;;;;;;;;16.10;24.00;;;;;;5090177;28;20554;-66
2022/01/29 04:03:19;;;;;;;43.10;8.73;;;16.10;23.80;;;;;;5089768;28;20349;-67
2022/01/29 04:05:45;;;;;;;;;;;16.00;24.00;;;;;;5090338;28;20076;-65
2022/01/29 04:08:17;;;;;;;34.67;8.02;;;15.90;23.10;;;;;;5088354;28;19956;-65
2022/01/29 04:10:44;;;;;;;29.70;5.72;;;15.80;23.10;;;;;;5090310;28;20442;-69
2022/01/29 04:13:12;;;;;;;36.22;5.90;;;15.80;23.00;;;;;;5090176;28;20069;-68
2022/01/29 04:15:38;;;;;;;24.35;5.43;;;15.80;22.80;;;;;;5089309;28;20076;-67
2022/01/29 04:18:05;;;;;;;24.65;6.07;;;15.70;22.60;;;;;;5091029;28;20125;-68
2022/01/29 04:20:31;;;;;;;;;;;15.70;22.40;;;;;;5090823;28;20588;-66
2022/01/29 04:22:58;;;;;;;20.35;5.60;;;15.70;22.20;;;;;;5091476;28;20118;-66
2022/01/29 04:25:25;;;;;;;23.23;6.10;;;15.60;22.10;;;;;;5089780;28;20106;-66
2022/01/29 04:27:51;;;;;;;;;;;15.60;22.20;;;;;;5090763;28;20064;-65
2022/01/29 04:30:28;;;;;;;22.00;4.07;;;15.50;21.70;;;;;;5090924;28;19956;-64
2022/01/29 04:33:04;;;;;;;17.05;4.18;;;15.50;21.60;;;;;;5092199;28;20083;-63
2022/01/29 04:35:32;;;;;;;23.50;3.85;;;15.50;21.30;;;;;;5088053;28;20534;-63
2022/01/29 04:37:58;;;;;;;12.80;3.83;;;15.40;20.90;;;;;;5087930;28;20080;-64
2022/01/29 04:40:25;;;;;;;32.45;5.60;;;15.50;20.60;;;;;;5093814;28;20065;-65
2022/01/29 04:42:52;;;;;;;27.65;8.20;;;15.40;20.50;;;;;;5088666;28;21637;-66
2022/01/29 04:45:18;;;;;;;26.23;8.73;;;15.30;20.40;;;;;;5090536;28;20504;-65
2022/01/29 04:47:44;;;;;;;;;;;15.30;20.40;;;;;;5089699;28;20678;-65
2022/01/29 04:50:11;;;;;;;41.33;12.23;;;15.20;20.20;;;;;;5091800;28;19956;-64
2022/01/29 04:52:38;;;;;;;30.10;11.35;;;15.20;20.30;;;;;;5089039;28;20068;-65
2022/01/29 04:55:04;;;;;;;;;;;15.20;20.50;;;;;;5087836;28;20072;-65
2022/01/29 04:57:30;;;;;;;27.75;9.40;;;15.20;20.70;;;;;;5089539;28;19957;-64
2022/01/29 04:59:56;;;;;;;;;;;15.10;20.50;;;;;;5089156;28;20896;-66
2022/01/29 05:02:23;;;;;;;28.25;7.88;;;15.10;20.70;;;;;;5087193;28;20002;-63
2022/01/29 05:04:49;;;;;;;26.85;7.93;;;15.00;20.60;;;;;;5088124;28;20089;-64
2022/01/29 05:07:15;;;;;;;;;;;15.00;20.40;;;;;;5090163;28;20105;-65
2022/01/29 05:09:42;;;;;;;24.10;12.02;;;14.90;20.00;;;;;;5088887;28;19956;-65
2022/01/29 05:12:09;;;;;;;25.05;12.02;;;14.80;19.90;;;;;;5076357;28;20100;-67
2022/01/29 05:14:59;;;;;;;27.15;10.00;;;14.90;19.80;;;;;;5087352;28;20103;-64
2022/01/29 05:28:05;;;;;;;14.70;3.60;;;14.80;19.60;;;;;;5088864;28;20080;-64
2022/01/29 05:30:31;;;;;;;;;;;14.80;19.70;;;;;;5087700;28;20503;-65
2022/01/29 05:32:57;;;;;;;7.95;3.03;;;14.80;19.70;;;;;;5089446;28;20531;-64
2022/01/29 05:35:24;;;;;;;14.18;3.67;;;14.70;19.60;;;;;;5087498;28;20080;-65
2022/01/29 05:37:51;;;;;;;;;;;14.70;20.00;;;;;;5087821;28;20560;-63
2022/01/29 05:40:18;;;;;;;11.98;3.95;;;14.70;20.00;;;;;;5087183;28;19956;-63
2022/01/29 05:42:44;;;;;;;21.48;4.85;;;14.60;20.10;;;;;;5087101;28;20081;-64
2022/01/29 05:45:10;;;;;;;;;;;14.60;20.50;;;;;;5096050;28;20081;-64
2022/01/29 05:47:37;;;;;;;15.63;7.70;;;14.60;20.50;;;;;;5087678;28;19957;-66
2022/01/29 05:50:05;;;;;;;27.27;8.93;;;14.50;20.60;;;;;;5086686;28;20069;-65
2022/01/29 05:52:32;;;;;;;27.30;10.52;;;14.50;20.80;;;;;;5089811;28;20518;-66
2022/01/29 05:54:59;;;;;;;26.90;10.68;;;14.40;20.90;;;;;;5088922;28;20083;-64
2022/01/29 05:57:25;;;;;;;29.48;11.13;;;14.40;21.20;;;;;;5088418;28;20085;-66
2022/01/29 05:59:51;;;;;;;;;;;14.40;21.20;;;;;;5086735;28;20076;-65
2022/01/29 06:02:18;;;;;;;28.95;11.52;;;14.40;21.30;;;;;;5085463;28;19963;-64
2022/01/29 06:04:44;;;;;;;;;;;14.30;21.40;;;;;;5087639;28;20093;-65
2022/01/29 06:07:10;;;;;;;30.77;10.30;;;14.20;21.40;;;;;;5088093;28;19957;-65
2022/01/29 06:09:36;;;;;;;;;;;14.20;21.90;;;;;;5086276;28;20134;-65
2022/01/29 06:12:03;;;;;;;32.88;10.00;;;14.20;21.90;;;;;;5084268;28;20011;-66
2022/01/29 06:14:29;;;;;;;22.20;10.27;;;14.20;21.50;;;;;;5088877;28;20072;-66
2022/01/29 06:16:56;;;;;;;18.45;9.10;;;14.10;21.70;;;;;;5087352;28;20091;-67
2022/01/29 06:19:23;;;;;;;18.80;8.27;;;14.10;21.70;;;;;;5066776;28;20176;-67
2022/01/29 06:21:49;;;;;;;;;;;14.10;21.60;;;;;;5086359;28;20100;-65
2022/01/29 06:24:15;;;;;;;21.27;7.18;;;14.10;21.60;;;;;;5087202;28;20033;-65
2022/01/29 06:26:42;;;;;;;14.90;5.07;;;14.00;21.50;;;;;;5086966;28;20104;-66
2022/01/29 06:29:08;;;;;;;;;;;14.00;21.10;;;;;;5073172;28;20073;-63
2022/01/29 06:31:34;;;;;;;12.77;3.85;;;14.00;21.20;;;;;;5087347;28;19961;-67
2022/01/29 06:34:00;;;;;;;6.80;3.47;;;14.00;21.00;;;;;;5087760;28;20103;-65
2022/01/29 06:36:27;;;;;;;8.18;3.88;;;14.00;21.20;;;;;;5091163;28;20604;-66
2022/01/29 06:38:53;;;;;;;;;;;14.00;21.10;;;;;;5088118;28;20540;-65
2022/01/29 06:41:19;;;;;;;14.98;3.25;;;14.00;21.00;;;;;;5085905;28;20051;-65
2022/01/29 06:43:45;;;;;;;;;;;14.00;21.10;;;;;;5090820;28;20534;-65
2022/01/29 06:46:11;;;;;;;9.68;3.75;;;14.00;21.20;;;;;;5086423;28;19961;-66
2022/01/29 06:48:37;;;;;;;;;;;14.00;21.40;;;;;;5087926;28;20077;-69
2022/01/29 06:51:04;;;;;;;9.35;3.00;;;13.90;21.50;;;;;;5086370;28;19960;-65
2022/01/29 06:53:30;;;;;;;;;;;13.90;21.40;;;;;;5096602;28;20100;-66
2022/01/29 06:55:56;;;;;;;11.10;4.22;;;13.90;21.20;;;;;;5088241;28;20015;-66
2022/01/29 06:58:23;;;;;;;14.63;3.22;;;13.90;21.50;;;;;;5090259;28;20084;-67
2022/01/29 07:00:49;;;;;;;;;;;13.90;21.60;;;;;;5087526;28;20084;-66
2022/01/29 07:03:15;;;;;;;9.20;2.45;;;13.80;21.50;;;;;;5089392;28;20018;-65
2022/01/29 07:05:41;;;;;;;9.48;2.63;;;13.80;21.70;;;;;;5084782;28;20076;-66
2022/01/29 07:08:07;;;;;;;;;;;13.80;21.50;;;;;;5089505;28;20072;-65
2022/01/29 07:10:34;;;;;;;9.05;2.70;;;13.70;21.80;;;;;;5089286;28;20422;-64
2022/01/29 07:13:00;;;;;;;;;;;13.70;21.80;;;;;;5091109;28;20080;-67
2022/01/29 07:15:27;;;;;;;15.55;3.78;;;13.60;22.10;;;;;;5091073;28;19957;-66
2022/01/29 07:17:53;;;;;;;;;;;13.60;22.30;;;;;;5090290;28;20089;-66
2022/01/29 07:20:19;;;;;;;11.27;2.78;;;13.60;22.30;;;;;;5090301;28;19957;-65
2022/01/29 07:22:45;;;;;;;;;;;13.60;22.50;;;;;;5091567;28;20077;-65
2022/01/29 07:25:11;;;;;;;15.40;6.47;;;13.60;22.50;;;;;;5090216;28;19957;-65
2022/01/29 07:27:37;;;;;;;;;;;13.50;22.70;;;;;;5075440;28;20100;-66
2022/01/29 07:30:04;;;;;;;19.83;7.50;;;13.50;22.70;;;;;;5090884;28;20617;-66
2022/01/29 07:32:31;;;;;;;16.33;7.45;;;13.40;23.30;;;;;;5090259;28;20171;-67
2022/01/29 07:34:58;;;;;;;25.95;8.40;;;13.40;23.40;;;;;;5089467;28;20118;-65
2022/01/29 07:37:25;;;;;;;37.90;11.73;;;13.40;23.50;;;;;;5089527;28;20110;-67
2022/01/29 07:39:51;;;;;;;33.70;14.32;;;13.40;23.70;;;;;;5090172;28;20064;-66
2022/01/29 07:42:17;;;;;;;;;;;13.40;23.60;;;;;;5093477;28;20075;-66
2022/01/29 07:44:44;;;;;;;37.25;14.93;;;13.40;23.70;;;;;;5089981;28;20023;-65
2022/01/29 07:47:10;;;;;;;;;;;13.30;23.80;;;;;;5090550;28;20065;-66
2022/01/29 07:49:36;;;;;;;33.47;13.32;;;13.30;23.90;;;;;;5088280;28;19980;-67
2022/01/29 07:52:03;;;;;;;30.92;12.48;;;13.30;24.10;;;;;;5090235;28;20065;-67
2022/01/29 07:54:29;;;;;;;26.92;9.95;;;13.30;24.10;;;;;;5089186;28;20122;-67
2022/01/29 07:56:56;;;;;;;;;;;13.30;24.40;;;;;;5089973;28;20088;-68
2022/01/29 07:59:22;;;;;;;19.15;6.90;;;13.30;24.40;;;;;;5094351;28;20467;-66
2022/01/29 08:01:48;;;;;;;;;;;13.30;24.80;;;;;;5073381;28;20125;-67
2022/01/29 08:04:14;;;;;;;10.20;4.75;;;13.20;24.50;;;;;;5090199;28;19991;-66
2022/01/29 08:06:40;;;;;;;;;;;13.20;24.60;;;;;;5089041;28;20087;-66
2022/01/29 08:09:08;;;;;;;11.80;4.75;;;13.20;24.70;;;;;;5089090;28;20051;-67
2022/01/29 08:11:35;;;;;;;13.32;3.78;;;13.20;24.70;;;;;;5089143;28;20124;-69
2022/01/29 08:14:02;;;;;;;9.88;3.47;;;13.20;25.30;;;;;;5089681;28;20084;-67
2022/01/29 08:16:28;;;;;;;13.32;3.97;;;13.20;25.40;;;;;;5090638;28;20080;-66
2022/01/29 08:18:58;;;;;;;14.85;3.63;;;13.20;25.00;;;;;;5088308;28;20176;-69
2022/01/29 08:21:24;;;;;;;9.48;3.33;;;13.20;24.60;;;;;;5092625;28;20147;-68
2022/01/29 08:23:51;;;;;;;7.22;3.00;;;13.20;24.60;;;;;;5090226;28;20218;-66
2022/01/29 08:26:17;;;;;;;9.43;2.53;;;13.10;24.30;;;;;;5090884;28;20076;-67
2022/01/29 08:28:43;;;;;;;;;;;13.10;24.00;;;;;;5090069;28;20148;-66
2022/01/29 08:31:10;;;;;;;9.27;2.17;;;13.10;24.00;;;;;;5088780;28;19956;-66
2022/01/29 08:33:37;;;;;;;11.27;2.72;;;13.10;23.90;;;;;;5087804;28;20096;-65
2022/01/29 08:36:04;;;;;;;13.70;3.10;;;13.00;23.60;;;;;;5071841;28;20084;-66
2022/01/29 08:38:30;;;;;;;8.95;2.90;;;13.00;23.40;;;;;;5090130;28;20076;-64
2022/01/29 08:40:58;;;;;;;;;;;13.00;23.00;;;;;;5088633;28;20569;-66
2022/01/29 08:43:25;;;;;;;6.20;2.67;;;13.00;23.00;;;;;;5090546;28;19983;-66
2022/01/29 08:45:52;;;;;;;7.95;2.72;;;13.00;23.30;;;;;;5088010;28;20158;-66
2022/01/29 08:48:20;;;;;;;10.63;2.20;;;13.00;23.20;;;;;;5090014;28;20330;-67
2022/01/29 08:50:46;;;;;;;6.68;1.90;;;12.90;22.80;;;;;;5087893;28;20535;-66
2022/01/29 08:53:14;;;;;;;;;;;12.90;22.70;;;;;;5091744;28;20105;-65
2022/01/29 08:55:40;;;;;;;8.77;2.30;;;13.00;22.30;;;;;;5088367;28;19956;-66
2022/01/29 08:58:08;;;;;;;;;;;12.90;22.10;;;;;;5090159;28;20076;-66
2022/01/29 09:00:36;;;;;;;7.32;2.08;;;12.90;22.30;;;;;;5089864;28;19968;-64
2022/01/29 09:03:04;;;;;;;9.48;2.17;;;12.90;22.10;;;;;;5089767;28;20068;-67
2022/01/29 09:05:31;;;;;;;7.43;1.73;;;12.90;22.30;;;;;;5089670;28;20064;-68
2022/01/29 09:07:58;;;;;;;5.13;1.80;;;12.90;22.10;;;;;;5087883;28;20526;-65
2022/01/29 09:10:26;;;;;;;5.28;1.85;;;13.00;22.40;;;;;;5086409;28;20092;-65
2022/01/29 09:12:53;;;;;;;8.48;1.67;;;13.00;22.10;;;;;;5088256;28;20164;-66
2022/01/29 09:15:20;;;;;;;4.28;1.45;;;13.00;21.80;;;;;;5090453;28;20107;-68
2022/01/29 09:17:46;;;;;;;;;;;13.00;21.70;;;;;;5090024;28;20546;-66
2022/01/29 09:20:12;;;;;;;4.50;1.60;;;13.00;21.90;;;;;;5088889;28;20703;-65
2022/01/29 09:22:38;;;;;;;;;;;13.00;21.70;;;;;;5088462;28;20072;-66
2022/01/29 09:25:06;;;;;;;7.95;1.25;;;13.00;21.40;;;;;;5088056;28;19982;-66
2022/01/29 09:27:33;;;;;;;7.55;1.30;;;13.00;21.50;;;;;;5087103;28;20069;-67
2022/01/29 09:29:59;;;;;;;2.65;1.30;;;13.00;21.30;;;;;;5088261;28;20518;-65
2022/01/29 09:32:25;;;;;;;9.40;2.47;;;13.10;21.40;;;;;;5087272;28;20073;-68
2022/01/29 09:34:52;;;;;;;5.82;2.03;;;13.10;21.20;;;;;;5087635;28;20485;-66
2022/01/29 09:37:18;;;;;;;;;;;13.20;21.00;;;;;;5089090;28;20080;-66
2022/01/29 09:39:45;;;;;;;6.57;1.25;;;13.20;20.90;;;;;;5087215;28;20013;-66
2022/01/29 09:42:11;;;;;;;7.57;1.95;;;13.30;20.80;;;;;;5088312;28;20079;-65
2022/01/29 09:44:37;;;;;;;;;;;13.30;20.60;;;;;;5088328;28;20084;-62
2022/01/29 09:47:05;;;;;;;8.63;1.90;;;13.30;20.50;;;;;;5087926;28;19978;-65
2022/01/29 09:49:35;;;;;;;6.90;1.95;;;13.40;20.40;;;;;;5087291;28;20515;-65
2022/01/29 09:52:02;;;;;;;7.25;1.70;;;13.40;20.90;;;;;;5071786;28;20076;-66
2022/01/29 09:54:28;;;;;;;7.95;1.35;;;13.40;20.40;;;;;;5087980;28;20142;-65
2022/01/29 09:56:55;;;;;;;10.18;1.92;;;13.40;20.40;;;;;;5087607;28;20081;-68
2022/01/29 09:59:21;;;;;;;;;;;13.40;20.50;;;;;;5088997;28;20167;-65
2022/01/29 10:01:47;;;;;;;8.05;1.23;;;13.30;20.80;;;;;;5087960;28;19964;-66
2022/01/29 10:04:14;;;;;;;3.05;1.23;;;13.30;20.90;;;;;;5087108;28;20088;-65
2022/01/29 10:06:43;;;;;;;;;;;13.30;20.80;;;;;;5089737;28;20069;-66
2022/01/29 10:09:14;;;;;;;4.72;1.08;;;13.10;21.00;;;;;;5086742;28;20005;-67
2022/01/29 10:11:41;;;;;;;7.13;1.00;;;13.10;21.10;;;;;;5087372;28;20134;-67
2022/01/29 10:14:08;;;;;;;4.80;1.05;;;13.10;22.00;;;;;;5089067;28;20071;-68
2022/01/29 10:16:41;;;;;;;6.30;0.70;;;12.90;22.00;;;;;;5089255;28;20073;-66
2022/01/29 10:19:13;;;;;;;4.38;1.20;;;12.80;22.40;;;;;;5070138;28;20509;-67
2022/01/29 10:21:42;;;;;;;3.28;0.80;;;12.80;23.40;;;;;;5087254;28;20076;-68
2022/01/29 10:24:13;;;;;;;13.23;1.42;;;12.60;23.50;;;;;;5087034;28;20512;-65
2022/01/29 10:26:47;;;;;;;5.70;0.90;;;12.50;23.50;;;;;;5086549;28;20126;-64
2022/01/29 10:29:33;;;;;;;8.75;1.27;;;12.50;23.90;;;;;;5088421;28;20084;-65
2022/01/29 10:32:00;;;;;;;2.03;0.98;;;12.40;23.70;;;;;;5086367;28;20068;-66
2022/01/29 10:34:34;;;;;;;4.03;0.77;;;12.30;23.50;;;;;;5086781;28;20077;-65
2022/01/29 10:37:12;;;;;;;14.75;0.88;;;12.30;24.20;;;;;;5089039;28;20072;-67
2022/01/29 10:39:40;;;;;;;7.18;1.48;;;12.20;24.30;;;;;;5089666;28;20080;-67
2022/01/29 10:42:27;;;;;;;5.28;1.00;;;12.20;25.20;;;;;;5087046;28;20172;-67
2022/01/29 10:44:56;;;;;;;4.45;1.20;;;12.10;24.70;;;;;;5086222;28;20092;-69
2022/01/29 10:47:23;;;;;;;7.00;1.10;;;12.10;24.50;;;;;;5090240;28;20072;-64
2022/01/29 10:50:14;;;;;;;3.15;1.15;;;12.00;24.30;;;;;;5088618;28;20429;-65
2022/01/29 10:52:40;;;;;;;3.78;1.10;;;12.00;24.20;;;;;;5090663;28;20472;-65
2022/01/29 10:55:07;;;;;;;;;;;12.10;23.50;;;;;;5093093;28;20072;-67
2022/01/29 10:57:40;;;;;;;8.73;1.20;;;12.20;23.30;;;;;;5090599;28;19961;-66
2022/01/29 11:00:24;;;;;;;4.93;1.60;;;12.10;23.90;;;;;;5090650;28;20100;-68
2022/01/29 11:02:53;;;;;;;7.57;1.40;;;12.10;24.40;;;;;;5090640;28;20076;-65
2022/01/29 11:05:23;;;;;;;5.90;1.85;;;12.00;24.40;;;;;;5090879;28;20069;-65
2022/01/29 11:07:52;;;;;;;5.88;1.65;;;12.10;24.20;;;;;;5091824;28;20442;-66
2022/01/29 11:10:19;;;;;;;7.43;1.80;;;12.00;24.30;;;;;;5090920;28;20121;-65
2022/01/29 11:12:48;;;;;;;8.57;1.65;;;12.00;24.30;;;;;;5090560;28;20150;-63
2022/01/29 11:15:22;;;;;;;8.15;1.80;;;12.00;24.40;;;;;;5088874;28;20081;-66
2022/01/29 11:17:49;;;;;;;4.82;1.38;;;11.90;24.80;;;;;;5091165;28;20071;-66
2022/01/29 11:20:17;;;;;;;11.32;1.90;;;11.90;25.30;;;;;;5091595;28;20513;-68
2022/01/29 11:22:49;;;;;;;7.68;1.42;;;11.70;24.70;;;;;;5091203;28;20076;-64
2022/01/29 11:25:23;;;;;;;8.05;1.63;;;11.70;25.00;;;;;;5091134;28;20158;-65
2022/01/29 11:28:12;;;;;;;11.52;2.03;;;11.60;24.60;;;;;;5091712;28;20076;-66
2022/01/29 11:30:41;;;;;;;9.48;1.52;;;11.60;25.40;;;;;;5092407;28;20085;-68
2022/01/29 11:33:07;;;;;;;4.85;1.30;;;11.60;25.70;;;;;;5089936;28;20550;-64
2022/01/29 11:35:54;;;;;;;4.53;1.00;;;11.60;26.00;;;;;;5091103;28;20087;-63
2022/01/29 11:38:32;;;;;;;4.55;0.90;;;11.50;26.20;;;;;;5091880;28;20094;-65
2022/01/29 11:41:02;;;;;;;9.48;1.38;;;11.50;26.10;;;;;;5089979;28;20075;-66
2022/01/29 11:43:35;;;;;;;10.40;1.40;;;11.50;26.50;;;;;;5092480;28;20126;-64
2022/01/29 11:46:31;;;;;;;11.85;1.55;;;11.50;26.50;;;;;;5091002;28;20068;-64
2022/01/29 11:49:15;;;;;;;5.57;1.10;;;11.40;26.30;;;;;;5089332;28;21388;-65
2022/01/29 11:51:52;;;;;;;7.53;1.15;;;11.40;25.10;;;;;;5088173;28;20526;-66
2022/01/29 11:54:24;;;;;;;7.18;0.90;;;11.50;24.40;;;;;;5089267;28;20079;-65
2022/01/29 11:57:12;;;;;;;12.30;1.40;;;11.60;24.40;;;;;;5089977;28;20221;-65
2022/01/29 11:59:39;;;;;;;5.82;0.95;;;11.60;24.70;;;;;;5089987;28;20076;-67
2022/01/29 12:02:15;;;;;;;1.15;0.80;;;11.60;24.50;;;;;;5090791;28;20072;-67
2022/01/29 12:05:00;;;;;;;6.15;1.02;;;11.60;24.50;;;;;;5090225;28;20169;-64
2022/01/29 12:07:31;;;;;;;3.33;0.60;;;11.50;24.20;;;;;;5090097;28;20073;-65
2022/01/29 12:10:13;;;;;;;4.10;1.02;;;11.50;24.10;;;;;;5074592;28;20080;-65
2022/01/29 12:12:42;;;;;;;7.57;1.48;;;11.50;24.40;;;;;;5090503;28;20475;-67
2022/01/29 12:15:11;;;;;;;3.53;1.20;;;11.50;24.20;;;;;;5090501;28;20487;-65
2022/01/29 12:17:50;;;;;;;17.88;1.27;;;11.50;24.30;;;;;;5090278;28;20083;-66
2022/01/29 12:20:22;;;;;;;13.35;1.73;;;11.50;24.70;;;;;;5091010;28;20590;-65
2022/01/29 12:22:50;;;;;;;10.00;1.23;;;11.40;25.10;;;;;;5093886;28;20114;-65
2022/01/29 12:25:19;;;;;;;8.85;1.65;;;11.40;25.40;;;;;;5075188;28;20616;-63
2022/01/29 12:28:07;;;;;;;4.25;1.10;;;11.30;25.50;;;;;;5092494;28;20089;-68
2022/01/29 12:30:37;;;;;;;11.57;1.52;;;11.30;26.20;;;;;;5089955;28;20122;-66
2022/01/29 12:33:08;;;;;;;6.72;1.63;;;11.30;27.00;;;;;;5091898;28;20142;-66
2022/01/29 12:35:40;;;;;;;14.50;1.63;;;11.10;27.30;;;;;;5089168;28;20462;-65
2022/01/29 12:38:11;;;;;;;11.50;1.42;;;11.10;28.00;;;;;;5088764;28;20553;-67
2022/01/29 12:40:56;;;;;;;5.75;1.80;;;11.00;28.30;;;;;;5090093;28;20482;-66
2022/01/29 12:43:52;;;;;;;9.73;1.27;;;10.90;28.00;;;;;;5088869;28;20147;-64
2022/01/29 12:46:21;;;;;;;6.60;1.50;;;10.80;27.80;;;;;;5089549;28;20075;-66
2022/01/29 12:49:10;;;;;;;14.80;2.00;;;10.70;27.90;;;;;;5090164;28;20095;-66
2022/01/29 12:51:55;;;;;;;7.13;1.67;;;10.80;28.90;;;;;;5089647;28;20118;-68
2022/01/29 12:54:23;;;;;;;14.43;2.28;;;10.80;29.60;;;;;;5087939;28;20084;-67
2022/01/29 12:56:49;;;;;;;12.00;2.35;;;10.70;29.20;;;;;;5087406;28;20092;-67
2022/01/29 12:59:17;;;;;;;12.85;1.98;;;10.60;28.60;;;;;;5088936;28;20538;-66
2022/01/29 13:01:45;;;;;;;8.57;1.88;;;10.60;28.80;;;;;;5088541;28;20125;-65
2022/01/29 13:04:17;;;;;;;8.60;1.70;;;10.60;29.60;;;;;;5088709;28;20088;-66
2022/01/29 13:06:47;;;;;;;13.05;1.77;;;10.50;30.20;;;;;;5090116;28;20072;-65
2022/01/29 13:09:21;;;;;;;16.20;1.80;;;10.50;31.00;;;;;;5088534;28;20093;-68
2022/01/29 13:11:55;;;;;;;9.35;2.20;;;10.40;30.90;;;;;;5087815;28;20087;-66
2022/01/29 13:14:21;;;;;;;11.05;2.03;;;10.40;30.80;;;;;;5090100;28;20122;-66
2022/01/29 13:16:51;;;;;;;11.88;2.17;;;10.40;30.80;;;;;;5089472;28;20084;-66
2022/01/29 13:19:20;;;;;;;10.30;1.60;;;10.20;30.80;;;;;;5089809;28;20550;-67
2022/01/29 13:21:46;;;;;;;9.73;1.50;;;10.20;30.40;;;;;;5087405;28;20087;-65
2022/01/29 13:24:31;;;;;;;8.82;2.00;;;10.30;30.60;;;;;;5087337;28;20132;-69
2022/01/29 13:27:03;;;;;;;10.32;1.63;;;10.30;32.30;;;;;;5087584;28;20123;-66
2022/01/29 13:29:34;;;;;;;15.75;2.47;;;10.20;32.70;;;;;;5088591;28;20068;-65
2022/01/29 13:32:06;;;;;;;14.20;3.42;;;10.20;32.50;;;;;;5089581;28;20081;-66